sensor_id;sensor_type;location;lat;lon;timestamp;temperature;humidity
23251;DHT22;11794;49.730;10.088;2022-09-01T00:00:59;15.90;99.90
23251;DHT22;11794;49.730;10.088;2022-09-01T00:03:27;15.90;99.90
23251;DHT22;11794;49.730;10.088;2022-09-01T00:05:53;15.90;99.90
23251;DHT22;11794;49.730;10.088;2022-09-01T00:08:22;16.00;99.90
23251;DHT22;11794;49.730;10.088;2022-09-01T00:10:48;16.00;99.90
23251;DHT22;11794;49.730;10.088;2022-09-01T00:13:14;16.00;99.90
23251;DHT22;11794;49.730;10.088;2022-09-01T00:15:40;15.90;99.90
23251;DHT22;11794;49.730;10.088;2022-09-01T00:18:05;15.90;99.90
23251;DHT22;11794;49.730;10.088;2022-09-01T00:20:31;15.90;99.90
23251;DHT22;11794;49.730;10.088;2022-09-01T00:22:57;15.90;99.90
23251;DHT22;11794;49.730;10.088;2022-09-01T00:25:25;15.80;99.90
23251;DHT22;11794;49.730;10.088;2022-09-01T00:27:53;15.80;99.90
23251;DHT22;11794;49.730;10.088;2022-09-01T00:30:19;15.80;99.90
23251;DHT22;11794;49.730;10.088;2022-09-01T00:32:45;15.80;99.90
23251;DHT22;11794;49.730;10.088;2022-09-01T00:35:13;15.70;99.90
23251;DHT22;11794;49.730;10.088;2022-09-01T00:37:38;15.70;99.90
23251;DHT22;11794;49.730;10.088;2022-09-01T00:40:05;15.60;99.90
23251;DHT22;11794;49.730;10.088;2022-09-01T00:42:31;15.60;99.90
23251;DHT22;11794;49.730;10.088;2022-09-01T00:44:56;15.50;99.90
23251;DHT22;11794;49.730;10.088;2022-09-01T00:47:22;15.50;99.90
23251;DHT22;11794;49.730;10.088;2022-09-01T00:49:48;15.40;99.90
23251;DHT22;11794;49.730;10.088;2022-09-01T00:52:24;15.30;99.90
23251;DHT22;11794;49.730;10.088;2022-09-01T00:54:56;15.30;99.90
23251;DHT22;11794;49.730;10.088;2022-09-01T00:57:25;15.30;99.90
23251;DHT22;11794;49.730;10.088;2022-09-01T00:59:56;15.20;99.90
23251;DHT22;11794;49.730;10.088;2022-09-01T01:02:22;15.10;99.90
23251;DHT22;11794;49.730;10.088;2022-09-01T01:04:48;15.10;99.90
23251;DHT22;11794;49.730;10.088;2022-09-01T01:07:14;15.20;99.90
23251;DHT22;11794;49.730;10.088;2022-09-01T01:09:43;15.20;99.90
23251;DHT22;11794;49.730;10.088;2022-09-01T01:12:10;15.20;99.90
23251;DHT22;11794;49.730;10.088;2022-09-01T01:14:44;15.20;99.90
23251;DHT22;11794;49.730;10.088;2022-09-01T01:17:10;15.20;99.90
23251;DHT22;11794;49.730;10.088;2022-09-01T01:19:43;15.20;99.90
23251;DHT22;11794;49.730;10.088;2022-09-01T01:23:02;15.20;99.90
23251;DHT22;11794;49.730;10.088;2022-09-01T01:25:54;15.20;99.90
23251;DHT22;11794;49.730;10.088;2022-09-01T01:30:56;15.00;99.90
23251;DHT22;11794;49.730;10.088;2022-09-01T01:33:37;14.90;99.90
23251;DHT22;11794;49.730;10.088;2022-09-01T01:36:09;14.90;99.90
23251;DHT22;11794;49.730;10.088;2022-09-01T01:38:38;14.80;99.90
23251;DHT22;11794;49.730;10.088;2022-09-01T01:41:07;14.80;99.90
23251;DHT22;11794;49.730;10.088;2022-09-01T01:43:33;14.70;99.90
23251;DHT22;11794;49.730;10.088;2022-09-01T01:45:58;14.70;99.90
23251;DHT22;11794;49.730;10.088;2022-09-01T01:48:28;14.70;99.90
23251;DHT22;11794;49.730;10.088;2022-09-01T01:50:55;14.70;99.90
23251;DHT22;11794;49.730;10.088;2022-09-01T01:53:25;14.70;99.90
23251;DHT22;11794;49.730;10.088;2022-09-01T01:55:51;14.60;99.90
23251;DHT22;11794;49.730;10.088;2022-09-01T01:58:17;14.50;99.90
23251;DHT22;11794;49.730;10.088;2022-09-01T02:00:45;14.40;99.90
23251;DHT22;11794;49.730;10.088;2022-09-01T02:03:16;14.40;99.90
23251;DHT22;11794;49.730;10.088;2022-09-01T02:05:45;14.40;99.90
23251;DHT22;11794;49.730;10.088;2022-09-01T02:08:11;14.30;99.90
23251;DHT22;11794;49.730;10.088;2022-09-01T02:10:43;14.30;99.90
23251;DHT22;11794;49.730;10.088;2022-09-01T02:13:10;14.20;99.90
23251;DHT22;11794;49.730;10.088;2022-09-01T02:15:43;14.20;99.90
23251;DHT22;11794;49.730;10.088;2022-09-01T02:18:19;14.20;99.90
23251;DHT22;11794;49.730;10.088;2022-09-01T02:20:49;14.20;99.90
23251;DHT22;11794;49.730;10.088;2022-09-01T02:23:17;14.20;99.90
23251;DHT22;11794;49.730;10.088;2022-09-01T02:25:48;14.20;99.90
23251;DHT22;11794;49.730;10.088;2022-09-01T02:28:16;14.10;99.90
23251;DHT22;11794;49.730;10.088;2022-09-01T02:30:49;14.10;99.90
23251;DHT22;11794;49.730;10.088;2022-09-01T02:33:17;14.00;99.90
23251;DHT22;11794;49.730;10.088;2022-09-01T02:35:46;14.00;99.90
23251;DHT22;11794;49.730;10.088;2022-09-01T02:38:12;13.90;99.90
23251;DHT22;11794;49.730;10.088;2022-09-01T02:40:40;13.90;99.90
23251;DHT22;11794;49.730;10.088;2022-09-01T02:43:07;13.90;99.90
23251;DHT22;11794;49.730;10.088;2022-09-01T02:45:36;13.90;99.90
23251;DHT22;11794;49.730;10.088;2022-09-01T02:48:03;13.90;99.90
23251;DHT22;11794;49.730;10.088;2022-09-01T02:50:32;13.80;99.90
23251;DHT22;11794;49.730;10.088;2022-09-01T02:52:58;13.80;99.90
23251;DHT22;11794;49.730;10.088;2022-09-01T02:55:25;13.80;99.90
23251;DHT22;11794;49.730;10.088;2022-09-01T02:57:51;13.90;99.90
23251;DHT22;11794;49.730;10.088;2022-09-01T03:00:22;13.90;99.90
23251;DHT22;11794;49.730;10.088;2022-09-01T03:02:54;13.90;99.90
23251;DHT22;11794;49.730;10.088;2022-09-01T03:05:21;13.80;99.90
23251;DHT22;11794;49.730;10.088;2022-09-01T03:07:53;13.80;99.90
23251;DHT22;11794;49.730;10.088;2022-09-01T03:10:22;13.80;99.90
23251;DHT22;11794;49.730;10.088;2022-09-01T03:12:48;13.80;99.90
23251;DHT22;11794;49.730;10.088;2022-09-01T03:15:14;13.80;99.90
23251;DHT22;11794;49.730;10.088;2022-09-01T03:17:39;13.80;99.90
23251;DHT22;11794;49.730;10.088;2022-09-01T03:20:06;13.70;99.90
23251;DHT22;11794;49.730;10.088;2022-09-01T03:22:32;13.70;99.90
23251;DHT22;11794;49.730;10.088;2022-09-01T03:24:58;13.70;99.90
23251;DHT22;11794;49.730;10.088;2022-09-01T03:27:24;13.70;99.90
23251;DHT22;11794;49.730;10.088;2022-09-01T03:29:49;13.80;99.90
23251;DHT22;11794;49.730;10.088;2022-09-01T03:32:15;13.70;99.90
23251;DHT22;11794;49.730;10.088;2022-09-01T03:34:40;13.70;99.90
23251;DHT22;11794;49.730;10.088;2022-09-01T03:37:06;13.60;99.90
23251;DHT22;11794;49.730;10.088;2022-09-01T03:39:32;13.60;99.90
23251;DHT22;11794;49.730;10.088;2022-09-01T03:41:59;13.50;99.90
23251;DHT22;11794;49.730;10.088;2022-09-01T03:44:25;13.50;99.90
23251;DHT22;11794;49.730;10.088;2022-09-01T03:46:51;13.50;99.90
23251;DHT22;11794;49.730;10.088;2022-09-01T03:49:17;13.60;99.90
23251;DHT22;11794;49.730;10.088;2022-09-01T03:51:49;13.60;99.90
23251;DHT22;11794;49.730;10.088;2022-09-01T03:54:17;13.50;99.90
23251;DHT22;11794;49.730;10.088;2022-09-01T03:56:42;13.50;99.90
23251;DHT22;11794;49.730;10.088;2022-09-01T03:59:08;13.50;99.90
23251;DHT22;11794;49.730;10.088;2022-09-01T04:01:41;13.40;99.90
23251;DHT22;11794;49.730;10.088;2022-09-01T04:04:09;13.40;99.90
23251;DHT22;11794;49.730;10.088;2022-09-01T04:06:39;13.30;99.90
23251;DHT22;11794;49.730;10.088;2022-09-01T04:09:04;13.40;99.90
23251;DHT22;11794;49.730;10.088;2022-09-01T04:11:30;13.40;99.90
23251;DHT22;11794;49.730;10.088;2022-09-01T04:13:57;13.40;99.90
23251;DHT22;11794;49.730;10.088;2022-09-01T04:16:30;13.40;99.90
23251;DHT22;11794;49.730;10.088;2022-09-01T04:19:21;13.30;99.90
23251;DHT22;11794;49.730;10.088;2022-09-01T04:21:59;13.30;99.90
23251;DHT22;11794;49.730;10.088;2022-09-01T04:24:26;13.30;99.90
23251;DHT22;11794;49.730;10.088;2022-09-01T04:26:56;13.30;99.90
23251;DHT22;11794;49.730;10.088;2022-09-01T04:29:23;13.20;99.90
23251;DHT22;11794;49.730;10.088;2022-09-01T04:31:53;13.20;99.90
23251;DHT22;11794;49.730;10.088;2022-09-01T04:34:22;13.20;99.90
23251;DHT22;11794;49.730;10.088;2022-09-01T04:36:48;13.10;99.90
23251;DHT22;11794;49.730;10.088;2022-09-01T04:39:17;13.10;99.90
23251;DHT22;11794;49.730;10.088;2022-09-01T04:41:44;13.10;99.90
23251;DHT22;11794;49.730;10.088;2022-09-01T04:44:11;13.10;99.90
23251;DHT22;11794;49.730;10.088;2022-09-01T04:46:39;13.10;99.90
23251;DHT22;11794;49.730;10.088;2022-09-01T04:49:07;13.10;99.90
23251;DHT22;11794;49.730;10.088;2022-09-01T04:51:45;13.20;99.90
23251;DHT22;11794;49.730;10.088;2022-09-01T04:54:11;13.20;99.90
23251;DHT22;11794;49.730;10.088;2022-09-01T04:56:40;13.20;99.90
23251;DHT22;11794;49.730;10.088;2022-09-01T04:59:07;13.20;99.90
23251;DHT22;11794;49.730;10.088;2022-09-01T05:01:35;13.30;99.90
23251;DHT22;11794;49.730;10.088;2022-09-01T05:04:11;13.30;99.90
23251;DHT22;11794;49.730;10.088;2022-09-01T05:06:40;13.40;99.90
23251;DHT22;11794;49.730;10.088;2022-09-01T05:09:06;13.40;99.90
23251;DHT22;11794;49.730;10.088;2022-09-01T05:11:34;13.50;99.90
23251;DHT22;11794;49.730;10.088;2022-09-01T05:14:02;13.60;99.90
23251;DHT22;11794;49.730;10.088;2022-09-01T05:16:29;13.60;99.90
23251;DHT22;11794;49.730;10.088;2022-09-01T05:18:55;13.70;99.90
23251;DHT22;11794;49.730;10.088;2022-09-01T05:21:22;13.80;99.90
23251;DHT22;11794;49.730;10.088;2022-09-01T05:23:51;13.80;99.90
23251;DHT22;11794;49.730;10.088;2022-09-01T05:26:23;13.90;99.90
23251;DHT22;11794;49.730;10.088;2022-09-01T05:28:54;14.00;99.90
23251;DHT22;11794;49.730;10.088;2022-09-01T05:31:21;14.10;99.90
23251;DHT22;11794;49.730;10.088;2022-09-01T05:33:48;14.10;99.90
23251;DHT22;11794;49.730;10.088;2022-09-01T05:36:17;14.10;99.90
23251;DHT22;11794;49.730;10.088;2022-09-01T05:38:44;14.30;99.90
23251;DHT22;11794;49.730;10.088;2022-09-01T05:41:11;14.40;99.90
23251;DHT22;11794;49.730;10.088;2022-09-01T05:43:40;14.40;99.90
23251;DHT22;11794;49.730;10.088;2022-09-01T05:46:12;14.50;99.90
23251;DHT22;11794;49.730;10.088;2022-09-01T05:48:41;14.60;99.90
23251;DHT22;11794;49.730;10.088;2022-09-01T05:51:08;14.80;99.90
23251;DHT22;11794;49.730;10.088;2022-09-01T05:53:34;14.80;99.90
23251;DHT22;11794;49.730;10.088;2022-09-01T05:56:05;15.00;99.90
23251;DHT22;11794;49.730;10.088;2022-09-01T05:58:32;15.00;99.90
23251;DHT22;11794;49.730;10.088;2022-09-01T06:01:00;15.10;99.90
23251;DHT22;11794;49.730;10.088;2022-09-01T06:03:27;15.20;99.90
23251;DHT22;11794;49.730;10.088;2022-09-01T06:05:54;15.20;99.90
23251;DHT22;11794;49.730;10.088;2022-09-01T06:08:22;15.30;99.90
23251;DHT22;11794;49.730;10.088;2022-09-01T06:10:49;15.50;99.90
23251;DHT22;11794;49.730;10.088;2022-09-01T06:13:17;15.60;99.90
23251;DHT22;11794;49.730;10.088;2022-09-01T06:15:47;15.70;99.90
23251;DHT22;11794;49.730;10.088;2022-09-01T06:18:13;15.80;99.90
23251;DHT22;11794;49.730;10.088;2022-09-01T06:20:41;15.90;99.90
23251;DHT22;11794;49.730;10.088;2022-09-01T06:23:07;16.00;99.90
23251;DHT22;11794;49.730;10.088;2022-09-01T06:25:35;16.10;99.90
23251;DHT22;11794;49.730;10.088;2022-09-01T06:28:01;16.20;99.90
23251;DHT22;11794;49.730;10.088;2022-09-01T06:30:29;16.20;99.90
23251;DHT22;11794;49.730;10.088;2022-09-01T06:32:56;16.20;99.90
23251;DHT22;11794;49.730;10.088;2022-09-01T06:35:22;16.20;99.90
23251;DHT22;11794;49.730;10.088;2022-09-01T06:37:54;16.20;99.90
23251;DHT22;11794;49.730;10.088;2022-09-01T06:40:20;16.20;99.90
23251;DHT22;11794;49.730;10.088;2022-09-01T06:42:49;16.30;99.90
23251;DHT22;11794;49.730;10.088;2022-09-01T06:45:17;16.30;99.90
23251;DHT22;11794;49.730;10.088;2022-09-01T06:47:45;16.40;99.90
23251;DHT22;11794;49.730;10.088;2022-09-01T06:50:13;16.40;99.90
23251;DHT22;11794;49.730;10.088;2022-09-01T06:52:42;16.60;99.90
23251;DHT22;11794;49.730;10.088;2022-09-01T06:55:10;16.70;99.90
23251;DHT22;11794;49.730;10.088;2022-09-01T06:57:37;16.80;99.90
23251;DHT22;11794;49.730;10.088;2022-09-01T07:00:11;16.90;99.90
23251;DHT22;11794;49.730;10.088;2022-09-01T07:02:44;17.00;99.90
23251;DHT22;11794;49.730;10.088;2022-09-01T07:05:11;17.10;99.90
23251;DHT22;11794;49.730;10.088;2022-09-01T07:07:36;17.30;99.90
23251;DHT22;11794;49.730;10.088;2022-09-01T07:10:04;17.40;99.90
23251;DHT22;11794;49.730;10.088;2022-09-01T07:12:30;17.50;99.90
23251;DHT22;11794;49.730;10.088;2022-09-01T07:14:56;17.70;99.90
23251;DHT22;11794;49.730;10.088;2022-09-01T07:17:22;17.80;99.90
23251;DHT22;11794;49.730;10.088;2022-09-01T07:19:49;17.90;99.90
23251;DHT22;11794;49.730;10.088;2022-09-01T07:22:15;17.90;99.90
23251;DHT22;11794;49.730;10.088;2022-09-01T07:24:40;18.20;99.90
23251;DHT22;11794;49.730;10.088;2022-09-01T07:27:06;18.40;99.90
23251;DHT22;11794;49.730;10.088;2022-09-01T07:29:33;18.80;99.90
23251;DHT22;11794;49.730;10.088;2022-09-01T07:31:59;19.10;99.90
23251;DHT22;11794;49.730;10.088;2022-09-01T07:34:26;19.40;99.90
23251;DHT22;11794;49.730;10.088;2022-09-01T07:36:51;19.50;99.90
23251;DHT22;11794;49.730;10.088;2022-09-01T07:39:21;19.80;99.90
23251;DHT22;11794;49.730;10.088;2022-09-01T07:41:46;20.10;99.90
23251;DHT22;11794;49.730;10.088;2022-09-01T07:44:12;20.30;99.90
23251;DHT22;11794;49.730;10.088;2022-09-01T07:46:40;20.60;99.90
23251;DHT22;11794;49.730;10.088;2022-09-01T07:49:06;20.90;99.90
23251;DHT22;11794;49.730;10.088;2022-09-01T07:51:33;21.40;99.90
23251;DHT22;11794;49.730;10.088;2022-09-01T07:53:59;21.90;99.90
23251;DHT22;11794;49.730;10.088;2022-09-01T07:56:26;22.10;99.90
23251;DHT22;11794;49.730;10.088;2022-09-01T07:58:55;22.40;99.90
23251;DHT22;11794;49.730;10.088;2022-09-01T08:01:24;22.60;99.90
23251;DHT22;11794;49.730;10.088;2022-09-01T08:03:56;22.80;99.90
23251;DHT22;11794;49.730;10.088;2022-09-01T08:06:24;23.10;99.90
23251;DHT22;11794;49.730;10.088;2022-09-01T08:08:52;23.50;99.90
23251;DHT22;11794;49.730;10.088;2022-09-01T08:11:21;23.80;99.90
23251;DHT22;11794;49.730;10.088;2022-09-01T08:13:47;24.00;99.90
23251;DHT22;11794;49.730;10.088;2022-09-01T08:16:14;24.20;99.90
23251;DHT22;11794;49.730;10.088;2022-09-01T08:18:41;24.50;99.90
23251;DHT22;11794;49.730;10.088;2022-09-01T08:21:08;25.00;99.90
23251;DHT22;11794;49.730;10.088;2022-09-01T08:23:34;25.10;98.90
23251;DHT22;11794;49.730;10.088;2022-09-01T08:26:07;25.30;98.60
23251;DHT22;11794;49.730;10.088;2022-09-01T08:28:33;25.10;98.50
23251;DHT22;11794;49.730;10.088;2022-09-01T08:30:59;25.10;98.30
23251;DHT22;11794;49.730;10.088;2022-09-01T08:33:26;25.60;98.00
23251;DHT22;11794;49.730;10.088;2022-09-01T08:35:51;26.20;97.10
23251;DHT22;11794;49.730;10.088;2022-09-01T08:38:17;26.30;95.60
23251;DHT22;11794;49.730;10.088;2022-09-01T08:40:53;26.30;95.60
23251;DHT22;11794;49.730;10.088;2022-09-01T08:43:43;26.40;96.40
23251;DHT22;11794;49.730;10.088;2022-09-01T08:46:34;26.80;95.80
23251;DHT22;11794;49.730;10.088;2022-09-01T08:49:22;27.30;94.80
23251;DHT22;11794;49.730;10.088;2022-09-01T08:52:23;27.20;93.80
23251;DHT22;11794;49.730;10.088;2022-09-01T08:55:01;27.20;93.80
23251;DHT22;11794;49.730;10.088;2022-09-01T08:57:36;27.30;94.00
23251;DHT22;11794;49.730;10.088;2022-09-01T09:00:04;26.80;93.30
23251;DHT22;11794;49.730;10.088;2022-09-01T09:08:22;26.00;94.50
23251;DHT22;11794;49.730;10.088;2022-09-01T09:11:14;26.20;93.60
23251;DHT22;11794;49.730;10.088;2022-09-01T09:16:20;26.60;92.80
23251;DHT22;11794;49.730;10.088;2022-09-01T09:18:52;26.80;92.00
23251;DHT22;11794;49.730;10.088;2022-09-01T09:23:55;26.30;92.30
23251;DHT22;11794;49.730;10.088;2022-09-01T09:26:21;26.10;92.80
23251;DHT22;11794;49.730;10.088;2022-09-01T09:28:48;26.00;93.50
23251;DHT22;11794;49.730;10.088;2022-09-01T09:31:35;26.30;92.10
23251;DHT22;11794;49.730;10.088;2022-09-01T09:34:16;25.90;92.50
23251;DHT22;11794;49.730;10.088;2022-09-01T09:36:43;25.90;92.80
23251;DHT22;11794;49.730;10.088;2022-09-01T09:39:13;26.40;93.00
23251;DHT22;11794;49.730;10.088;2022-09-01T09:41:41;26.70;92.00
23251;DHT22;11794;49.730;10.088;2022-09-01T09:44:25;26.60;91.30
23251;DHT22;11794;49.730;10.088;2022-09-01T09:46:52;27.30;91.00
23251;DHT22;11794;49.730;10.088;2022-09-01T09:49:23;27.80;90.20
23251;DHT22;11794;49.730;10.088;2022-09-01T09:59:48;29.20;84.40
23251;DHT22;11794;49.730;10.088;2022-09-01T10:04:51;29.40;84.50
23251;DHT22;11794;49.730;10.088;2022-09-01T10:07:35;29.60;82.40
23251;DHT22;11794;49.730;10.088;2022-09-01T10:10:05;29.50;83.40
23251;DHT22;11794;49.730;10.088;2022-09-01T10:12:31;28.80;84.70
23251;DHT22;11794;49.730;10.088;2022-09-01T10:17:32;27.20;83.70
23251;DHT22;11794;49.730;10.088;2022-09-01T10:20:14;26.50;85.10
23251;DHT22;11794;49.730;10.088;2022-09-01T10:22:41;25.60;87.70
23251;DHT22;11794;49.730;10.088;2022-09-01T10:25:15;25.10;89.90
23251;DHT22;11794;49.730;10.088;2022-09-01T10:27:43;25.10;89.90
23251;DHT22;11794;49.730;10.088;2022-09-01T10:30:16;24.90;89.90
23251;DHT22;11794;49.730;10.088;2022-09-01T10:35:23;25.50;89.00
23251;DHT22;11794;49.730;10.088;2022-09-01T10:37:51;25.40;89.70
23251;DHT22;11794;49.730;10.088;2022-09-01T10:40:36;25.30;90.30
23251;DHT22;11794;49.730;10.088;2022-09-01T10:45:49;26.20;89.20
23251;DHT22;11794;49.730;10.088;2022-09-01T10:50:52;26.80;87.90
23251;DHT22;11794;49.730;10.088;2022-09-01T10:56:19;27.00;85.00
23251;DHT22;11794;49.730;10.088;2022-09-01T11:04:07;26.00;86.60
23251;DHT22;11794;49.730;10.088;2022-09-01T11:09:24;25.50;88.40
23251;DHT22;11794;49.730;10.088;2022-09-01T11:17:30;25.50;87.50
23251;DHT22;11794;49.730;10.088;2022-09-01T11:20:06;25.40;86.80
23251;DHT22;11794;49.730;10.088;2022-09-01T11:22:37;25.30;86.80
23251;DHT22;11794;49.730;10.088;2022-09-01T11:35:32;25.40;89.00
23251;DHT22;11794;49.730;10.088;2022-09-01T11:38:02;25.40;86.70
23251;DHT22;11794;49.730;10.088;2022-09-01T11:40:32;25.20;87.80
23251;DHT22;11794;49.730;10.088;2022-09-01T11:43:02;25.20;86.70
23251;DHT22;11794;49.730;10.088;2022-09-01T11:45:30;25.20;87.00
23251;DHT22;11794;49.730;10.088;2022-09-01T11:48:01;25.20;88.00
23251;DHT22;11794;49.730;10.088;2022-09-01T11:50:28;25.30;87.20
23251;DHT22;11794;49.730;10.088;2022-09-01T11:53:02;25.50;87.00
23251;DHT22;11794;49.730;10.088;2022-09-01T11:55:31;25.60;87.20
23251;DHT22;11794;49.730;10.088;2022-09-01T11:57:58;25.80;86.40
23251;DHT22;11794;49.730;10.088;2022-09-01T12:00:30;26.20;85.60
23251;DHT22;11794;49.730;10.088;2022-09-01T12:02:56;26.40;84.30
23251;DHT22;11794;49.730;10.088;2022-09-01T12:05:29;26.40;83.90
23251;DHT22;11794;49.730;10.088;2022-09-01T12:07:56;26.40;82.60
23251;DHT22;11794;49.730;10.088;2022-09-01T12:10:38;26.20;83.90
23251;DHT22;11794;49.730;10.088;2022-09-01T12:13:22;26.00;83.60
23251;DHT22;11794;49.730;10.088;2022-09-01T12:15:56;25.90;83.20
23251;DHT22;11794;49.730;10.088;2022-09-01T12:18:28;26.20;82.40
23251;DHT22;11794;49.730;10.088;2022-09-01T12:20:56;26.00;82.70
23251;DHT22;11794;49.730;10.088;2022-09-01T12:23:25;26.20;84.40
23251;DHT22;11794;49.730;10.088;2022-09-01T12:25:53;26.70;82.60
23251;DHT22;11794;49.730;10.088;2022-09-01T12:28:24;26.80;81.60
23251;DHT22;11794;49.730;10.088;2022-09-01T12:30:51;27.70;81.30
23251;DHT22;11794;49.730;10.088;2022-09-01T12:33:18;29.50;78.00
23251;DHT22;11794;49.730;10.088;2022-09-01T12:35:45;30.90;73.50
23251;DHT22;11794;49.730;10.088;2022-09-01T12:40:50;30.20;73.60
23251;DHT22;11794;49.730;10.088;2022-09-01T12:43:46;30.10;73.90
23251;DHT22;11794;49.730;10.088;2022-09-01T12:46:11;30.50;72.20
23251;DHT22;11794;49.730;10.088;2022-09-01T12:48:39;31.60;71.40
23251;DHT22;11794;49.730;10.088;2022-09-01T12:51:25;32.70;69.30
23251;DHT22;11794;49.730;10.088;2022-09-01T12:53:57;33.60;66.80
23251;DHT22;11794;49.730;10.088;2022-09-01T12:56:35;34.70;63.80
23251;DHT22;11794;49.730;10.088;2022-09-01T12:59:14;34.60;63.90
23251;DHT22;11794;49.730;10.088;2022-09-01T13:01:44;33.40;63.30
23251;DHT22;11794;49.730;10.088;2022-09-01T13:06:39;30.00;69.60
23251;DHT22;11794;49.730;10.088;2022-09-01T13:09:04;28.80;71.70
23251;DHT22;11794;49.730;10.088;2022-09-01T13:11:30;27.80;74.10
23251;DHT22;11794;49.730;10.088;2022-09-01T13:13:55;27.20;75.60
23251;DHT22;11794;49.730;10.088;2022-09-01T13:16:21;26.70;77.20
23251;DHT22;11794;49.730;10.088;2022-09-01T13:18:47;26.40;77.70
23251;DHT22;11794;49.730;10.088;2022-09-01T13:21:12;25.90;75.50
23251;DHT22;11794;49.730;10.088;2022-09-01T13:23:38;25.60;75.60
23251;DHT22;11794;49.730;10.088;2022-09-01T13:26:04;25.40;76.00
23251;DHT22;11794;49.730;10.088;2022-09-01T13:28:30;25.20;75.80
23251;DHT22;11794;49.730;10.088;2022-09-01T13:31:01;25.00;75.40
23251;DHT22;11794;49.730;10.088;2022-09-01T13:33:29;24.70;76.80
23251;DHT22;11794;49.730;10.088;2022-09-01T13:35:55;24.50;78.30
23251;DHT22;11794;49.730;10.088;2022-09-01T13:38:21;24.50;77.00
23251;DHT22;11794;49.730;10.088;2022-09-01T13:40:48;24.70;76.30
23251;DHT22;11794;49.730;10.088;2022-09-01T13:43:21;24.50;76.60
23251;DHT22;11794;49.730;10.088;2022-09-01T13:45:47;24.80;77.40
23251;DHT22;11794;49.730;10.088;2022-09-01T13:48:14;24.80;78.50
23251;DHT22;11794;49.730;10.088;2022-09-01T13:50:40;25.00;80.10
23251;DHT22;11794;49.730;10.088;2022-09-01T13:53:06;25.20;80.10
23251;DHT22;11794;49.730;10.088;2022-09-01T13:55:37;25.30;80.50
23251;DHT22;11794;49.730;10.088;2022-09-01T13:58:04;25.40;80.60
23251;DHT22;11794;49.730;10.088;2022-09-01T14:00:34;25.80;79.60
23251;DHT22;11794;49.730;10.088;2022-09-01T14:03:03;26.10;79.20
23251;DHT22;11794;49.730;10.088;2022-09-01T14:05:38;26.20;78.10
23251;DHT22;11794;49.730;10.088;2022-09-01T14:08:05;26.00;78.40
23251;DHT22;11794;49.730;10.088;2022-09-01T14:10:31;25.60;78.70
23251;DHT22;11794;49.730;10.088;2022-09-01T14:12:58;25.30;80.10
23251;DHT22;11794;49.730;10.088;2022-09-01T14:15:24;25.30;81.00
23251;DHT22;11794;49.730;10.088;2022-09-01T14:17:54;25.30;80.40
23251;DHT22;11794;49.730;10.088;2022-09-01T14:20:44;25.40;80.50
23251;DHT22;11794;49.730;10.088;2022-09-01T14:23:08;25.50;80.10
23251;DHT22;11794;49.730;10.088;2022-09-01T14:25:35;25.70;79.40
23251;DHT22;11794;49.730;10.088;2022-09-01T14:28:02;25.70;78.50
23251;DHT22;11794;49.730;10.088;2022-09-01T14:30:30;25.70;77.10
23251;DHT22;11794;49.730;10.088;2022-09-01T14:32:56;25.90;77.80
23251;DHT22;11794;49.730;10.088;2022-09-01T14:35:23;25.90;76.10
23251;DHT22;11794;49.730;10.088;2022-09-01T14:37:51;26.10;76.40
23251;DHT22;11794;49.730;10.088;2022-09-01T14:40:19;26.00;75.60
23251;DHT22;11794;49.730;10.088;2022-09-01T14:42:47;25.90;76.70
23251;DHT22;11794;49.730;10.088;2022-09-01T14:45:15;25.60;76.80
23251;DHT22;11794;49.730;10.088;2022-09-01T14:47:43;25.60;78.20
23251;DHT22;11794;49.730;10.088;2022-09-01T14:50:09;25.80;78.70
23251;DHT22;11794;49.730;10.088;2022-09-01T14:52:34;25.80;77.80
23251;DHT22;11794;49.730;10.088;2022-09-01T14:55:01;25.90;77.90
23251;DHT22;11794;49.730;10.088;2022-09-01T14:57:28;25.90;75.30
23251;DHT22;11794;49.730;10.088;2022-09-01T14:59:53;25.70;75.00
23251;DHT22;11794;49.730;10.088;2022-09-01T15:02:19;25.60;75.80
23251;DHT22;11794;49.730;10.088;2022-09-01T15:04:44;25.60;76.10
23251;DHT22;11794;49.730;10.088;2022-09-01T15:07:10;25.70;77.20
23251;DHT22;11794;49.730;10.088;2022-09-01T15:09:35;25.80;77.20
23251;DHT22;11794;49.730;10.088;2022-09-01T15:12:02;25.90;76.80
23251;DHT22;11794;49.730;10.088;2022-09-01T15:14:27;26.00;78.00
23251;DHT22;11794;49.730;10.088;2022-09-01T15:16:53;26.30;76.10
23251;DHT22;11794;49.730;10.088;2022-09-01T15:19:19;26.00;77.10
23251;DHT22;11794;49.730;10.088;2022-09-01T15:21:45;25.70;77.60
23251;DHT22;11794;49.730;10.088;2022-09-01T15:24:11;25.20;78.80
23251;DHT22;11794;49.730;10.088;2022-09-01T15:26:37;24.60;80.10
23251;DHT22;11794;49.730;10.088;2022-09-01T15:29:05;24.80;80.70
23251;DHT22;11794;49.730;10.088;2022-09-01T15:31:31;24.80;79.60
23251;DHT22;11794;49.730;10.088;2022-09-01T15:33:59;24.90;80.30
23251;DHT22;11794;49.730;10.088;2022-09-01T15:36:27;25.10;78.80
23251;DHT22;11794;49.730;10.088;2022-09-01T15:38:54;25.20;78.60
23251;DHT22;11794;49.730;10.088;2022-09-01T15:41:23;25.30;78.40
23251;DHT22;11794;49.730;10.088;2022-09-01T15:43:49;25.30;77.70
23251;DHT22;11794;49.730;10.088;2022-09-01T15:46:15;25.10;78.10
23251;DHT22;11794;49.730;10.088;2022-09-01T15:48:42;25.10;77.40
23251;DHT22;11794;49.730;10.088;2022-09-01T15:53:49;25.00;78.40
23251;DHT22;11794;49.730;10.088;2022-09-01T15:56:15;24.80;78.80
23251;DHT22;11794;49.730;10.088;2022-09-01T15:58:43;24.70;78.90
23251;DHT22;11794;49.730;10.088;2022-09-01T16:01:08;24.60;79.60
23251;DHT22;11794;49.730;10.088;2022-09-01T16:03:34;24.50;79.70
23251;DHT22;11794;49.730;10.088;2022-09-01T16:06:01;24.60;78.60
23251;DHT22;11794;49.730;10.088;2022-09-01T16:08:28;24.50;78.60
23251;DHT22;11794;49.730;10.088;2022-09-01T16:10:56;24.40;78.30
23251;DHT22;11794;49.730;10.088;2022-09-01T16:13:22;24.40;78.90
23251;DHT22;11794;49.730;10.088;2022-09-01T16:15:55;24.20;81.50
23251;DHT22;11794;49.730;10.088;2022-09-01T16:18:38;24.10;82.40
23251;DHT22;11794;49.730;10.088;2022-09-01T16:21:23;23.90;79.30
23251;DHT22;11794;49.730;10.088;2022-09-01T16:23:52;24.10;81.20
23251;DHT22;11794;49.730;10.088;2022-09-01T16:26:19;24.10;82.90
23251;DHT22;11794;49.730;10.088;2022-09-01T16:28:51;24.10;83.40
23251;DHT22;11794;49.730;10.088;2022-09-01T16:31:24;23.90;82.30
23251;DHT22;11794;49.730;10.088;2022-09-01T16:33:52;23.90;81.50
23251;DHT22;11794;49.730;10.088;2022-09-01T16:36:30;23.80;80.80